Time;durP1;ratioP1;P1;durP2;ratioP2;P2;SDS_P1;SDS_P2;PMS_P1;PMS_P2;Temp;Humidity;BMP_temperature;BMP_pressure;BME280_temperature;BME280_humidity;BME280_pressure;Samples;Min_cycle;Max_cycle;Signal;HPM_P1;HPM_P2
2023/10/22 00:08:39;;;;;;;5.13;2.93;;;;;;;;;;20995836;28;20740;-72
2023/10/22 00:18:41;;;;;;;4.63;3.13;;;;;;;;;;20995977;28;20203;-72
2023/10/22 00:28:43;;;;;;;4.63;3.33;;;;;;;;;;20958376;28;20701;-72
2023/10/22 00:38:45;;;;;;;5.07;3.20;;;;;;;;;;20911934;28;20214;-71
2023/10/22 00:48:48;;;;;;;4.90;3.20;;;;;;;;;;20911897;28;20700;-71
2023/10/22 00:58:50;;;;;;;4.27;3.00;;;;;;;;;;20911297;28;20218;-72
2023/10/22 01:08:53;;;;;;;5.47;2.73;;;;;;;;;;20910273;28;20235;-72
2023/10/22 01:18:55;;;;;;;3.60;2.80;;;;;;;;;;20910774;28;20215;-71
2023/10/22 01:28:57;;;;;;;3.23;2.80;;;;;;;;;;20956427;28;20233;-71
2023/10/22 01:39:00;;;;;;;5.63;2.77;;;;;;;;;;20926533;28;20214;-71
2023/10/22 01:49:02;;;;;;;5.03;3.00;;;;;;;;;;20924319;28;20246;-72
2023/10/22 01:59:05;;;;;;;6.00;2.90;;;;;;;;;;20923238;28;20208;-72
2023/10/22 02:09:08;;;;;;;6.87;3.47;;;;;;;;;;20922185;28;20242;-70
2023/10/22 02:19:10;;;;;;;4.07;2.77;;;;;;;;;;20921889;28;20611;-69
2023/10/22 02:29:13;;;;;;;4.50;3.07;;;;;;;;;;20920861;28;20703;-70
2023/10/22 02:39:15;;;;;;;4.20;2.90;;;;;;;;;;20920383;28;20218;-70
2023/10/22 02:49:18;;;;;;;4.53;3.17;;;;;;;;;;20919106;28;20234;-70
2023/10/22 02:59:20;;;;;;;6.17;2.80;;;;;;;;;;20918845;28;20210;-71
2023/10/22 03:09:22;;;;;;;5.27;2.90;;;;;;;;;;20917737;28;20245;-69
2023/10/22 03:19:24;;;;;;;5.50;3.30;;;;;;;;;;20917936;28;20204;-69
2023/10/22 03:29:27;;;;;;;4.67;3.13;;;;;;;;;;20917164;28;20235;-71
2023/10/22 03:39:29;;;;;;;3.53;2.70;;;;;;;;;;20915493;28;20205;-71
2023/10/22 03:49:31;;;;;;;6.00;3.00;;;;;;;;;;20914887;28;20238;-72
2023/10/22 03:59:33;;;;;;;7.63;3.07;;;;;;;;;;20912853;28;20207;-71
2023/10/22 04:09:35;;;;;;;11.10;3.60;;;;;;;;;;20913008;28;20267;-72
2023/10/22 04:19:38;;;;;;;3.73;3.00;;;;;;;;;;20925787;28;20309;-70
2023/10/22 04:29:42;;;;;;;6.30;3.10;;;;;;;;;;20935158;28;20239;-72
2023/10/22 04:39:44;;;;;;;3.87;3.00;;;;;;;;;;20911898;28;20232;-70
2023/10/22 04:49:47;;;;;;;5.43;3.23;;;;;;;;;;20911953;28;20239;-71
2023/10/22 04:59:51;;;;;;;4.87;2.60;;;;;;;;;;20911207;28;20273;-70
2023/10/22 05:09:53;;;;;;;5.13;2.83;;;;;;;;;;20921128;28;20279;-71
2023/10/22 05:19:56;;;;;;;4.67;3.03;;;;;;;;;;20959719;28;20663;-71
2023/10/22 05:29:58;;;;;;;7.93;3.30;;;;;;;;;;20925721;28;20241;-71
2023/10/22 05:40:00;;;;;;;6.30;4.53;;;;;;;;;;20924910;28;20211;-69
2023/10/22 05:50:03;;;;;;;8.80;4.60;;;;;;;;;;20924692;28;20234;-70
2023/10/22 06:00:07;;;;;;;6.10;3.47;;;;;;;;;;20922198;28;20290;-70
2023/10/22 06:10:10;;;;;;;6.97;4.97;;;;;;;;;;20922524;28;21084;-70
2023/10/22 06:20:12;;;;;;;13.83;9.67;;;;;;;;;;20920741;28;20295;-69
2023/10/22 06:30:14;;;;;;;7.40;5.53;;;;;;;;;;20921280;28;20594;-69
2023/10/22 06:40:17;;;;;;;5.33;3.23;;;;;;;;;;20920438;28;20234;-69
2023/10/22 06:50:19;;;;;;;8.03;4.67;;;;;;;;;;20941148;28;20682;-68
2023/10/22 07:00:21;;;;;;;14.23;7.20;;;;;;;;;;21001782;28;20285;-66
2023/10/22 07:10:24;;;;;;;4.57;3.00;;;;;;;;;;21000830;28;20728;-69
2023/10/22 07:20:26;;;;;;;4.70;2.50;;;;;;;;;;21000252;28;20257;-68
2023/10/22 07:30:29;;;;;;;6.60;3.60;;;;;;;;;;20998721;28;20229;-67
2023/10/22 07:40:35;;;;;;;4.60;2.20;;;;;;;;;;20998076;28;20206;-71
2023/10/22 07:50:38;;;;;;;3.90;1.70;;;;;;;;;;20997958;28;20344;-68
2023/10/22 08:00:40;;;;;;;5.47;1.70;;;;;;;;;;20996381;28;20640;-68
2023/10/22 08:10:42;;;;;;;7.97;1.63;;;;;;;;;;20995539;28;20273;-68
2023/10/22 08:20:44;;;;;;;3.33;1.60;;;;;;;;;;20995846;28;20211;-68
2023/10/22 08:30:47;;;;;;;5.23;1.67;;;;;;;;;;20945000;28;20233;-74
2023/10/22 08:40:51;;;;;;;5.53;1.60;;;;;;;;;;20911888;28;20219;-71
2023/10/22 08:50:53;;;;;;;7.07;1.93;;;;;;;;;;20924593;28;20654;-71
2023/10/22 09:00:55;;;;;;;4.40;1.57;;;;;;;;;;21010915;28;20226;-71
2023/10/22 09:11:10;;;;;;;5.80;1.70;;;;;;;;;;21057325;28;20233;-81
2023/10/22 09:21:12;;;;;;;6.13;1.77;;;;;;;;;;20965256;28;20294;-70
2023/10/22 09:31:14;;;;;;;8.83;2.00;;;;;;;;;;20925491;28;20238;-67
2023/10/22 09:41:25;;;;;;;6.87;1.77;;;;;;;;;;20924653;28;20209;-67
2023/10/22 09:51:31;;;;;;;4.83;1.93;;;;;;;;;;20924625;28;20721;-69
2023/10/22 10:01:34;;;;;;;9.53;1.90;;;;;;;;;;21017413;28;20368;-72
2023/10/22 10:11:37;;;;;;;7.40;1.70;;;;;;;;;;21089000;28;20309;-69
2023/10/22 10:21:39;;;;;;;13.13;5.57;;;;;;;;;;21088551;28;20308;-71
2023/10/22 10:31:45;;;;;;;8.37;2.33;;;;;;;;;;21088117;28;20230;-70
2023/10/22 10:41:53;;;;;;;5.50;1.80;;;;;;;;;;21089389;28;20296;-74
2023/10/22 10:52:00;;;;;;;8.27;2.13;;;;;;;;;;21089493;28;20238;-72
2023/10/22 11:02:02;;;;;;;9.53;2.40;;;;;;;;;;21055577;28;20231;-67
2023/10/22 11:12:05;;;;;;;7.90;1.87;;;;;;;;;;21083143;28;20246;-73
2023/10/22 11:22:12;;;;;;;10.60;2.20;;;;;;;;;;21051778;28;20207;-72
2023/10/22 11:32:15;;;;;;;8.37;1.73;;;;;;;;;;20958431;28;20662;-72
2023/10/22 11:42:18;;;;;;;6.83;1.60;;;;;;;;;;20917141;28;20211;-71
2023/10/22 11:52:35;;;;;;;5.50;1.37;;;;;;;;;;20914268;28;20231;-72
2023/10/22 12:02:38;;;;;;;9.90;3.40;;;;;;;;;;20923193;28;20239;-70
2023/10/22 12:12:41;;;;;;;8.10;1.60;;;;;;;;;;20913572;28;20235;-70
2023/10/22 12:22:43;;;;;;;4.93;1.40;;;;;;;;;;20912071;28;20222;-70
2023/10/22 12:32:45;;;;;;;11.20;1.60;;;;;;;;;;20952319;28;20237;-70
2023/10/22 12:42:48;;;;;;;9.00;2.20;;;;;;;;;;20955872;28;20225;-69
2023/10/22 12:52:50;;;;;;;7.30;1.77;;;;;;;;;;20909908;28;20232;-69
2023/10/22 13:02:52;;;;;;;6.73;1.83;;;;;;;;;;20910939;28;20241;-70
2023/10/22 13:12:55;;;;;;;6.90;2.10;;;;;;;;;;20910579;28;20623;-69
2023/10/22 13:23:13;;;;;;;7.77;2.67;;;;;;;;;;20910148;28;20229;-69
2023/10/22 13:33:15;;;;;;;8.73;2.40;;;;;;;;;;20916632;28;20717;-69
2023/10/22 13:43:17;;;;;;;6.20;2.50;;;;;;;;;;20924972;28;20234;-69
2023/10/22 13:53:20;;;;;;;7.07;1.73;;;;;;;;;;20924003;28;20330;-69
2023/10/22 14:03:22;;;;;;;5.83;1.63;;;;;;;;;;20923861;28;20669;-70
2023/10/22 14:13:24;;;;;;;7.83;1.90;;;;;;;;;;20922828;28;20604;-70
2023/10/22 14:23:26;;;;;;;10.67;2.40;;;;;;;;;;20922218;28;20619;-69
2023/10/22 14:33:28;;;;;;;6.33;1.73;;;;;;;;;;20921677;28;20232;-69
2023/10/22 14:43:31;;;;;;;5.57;1.73;;;;;;;;;;20919475;28;20243;-69
2023/10/22 14:53:33;;;;;;;6.13;2.43;;;;;;;;;;20918225;28;20239;-69
2023/10/22 15:03:35;;;;;;;7.00;2.20;;;;;;;;;;20918968;28;20661;-69
2023/10/22 15:13:38;;;;;;;9.70;2.10;;;;;;;;;;20917755;28;20236;-69
2023/10/22 15:23:40;;;;;;;7.60;2.13;;;;;;;;;;20917141;28;20629;-69
2023/10/22 15:33:42;;;;;;;7.80;2.00;;;;;;;;;;20953742;28;20227;-69
2023/10/22 15:43:44;;;;;;;13.43;3.20;;;;;;;;;;20997684;28;20210;-68
2023/10/22 15:53:47;;;;;;;12.70;2.40;;;;;;;;;;20997261;28;20257;-66
2023/10/22 16:03:50;;;;;;;5.10;1.87;;;;;;;;;;20979064;28;20234;-68
2023/10/22 16:13:52;;;;;;;11.03;2.80;;;;;;;;;;20996044;28;20245;-66
2023/10/22 16:23:54;;;;;;;9.23;2.60;;;;;;;;;;20978307;28;20294;-67
2023/10/22 16:33:56;;;;;;;8.50;2.03;;;;;;;;;;20995674;28;20238;-67
2023/10/22 16:43:59;;;;;;;8.17;2.17;;;;;;;;;;20994910;28;20670;-69
2023/10/22 16:54:01;;;;;;;7.07;2.10;;;;;;;;;;20994368;28;20241;-68
2023/10/22 17:04:04;;;;;;;8.80;2.27;;;;;;;;;;20994145;28;20325;-73
2023/10/22 17:14:07;;;;;;;8.57;1.90;;;;;;;;;;20935870;28;20577;-65
2023/10/22 17:24:09;;;;;;;7.37;2.00;;;;;;;;;;20949368;28;20298;-65
2023/10/22 17:34:12;;;;;;;10.10;2.00;;;;;;;;;;20938997;28;20238;-70
2023/10/22 17:44:15;;;;;;;6.73;2.00;;;;;;;;;;20983399;28;20203;-68
2023/10/22 17:54:17;;;;;;;7.87;1.97;;;;;;;;;;21007753;28;20227;-64
2023/10/22 18:04:19;;;;;;;8.53;2.23;;;;;;;;;;21006917;28;20231;-66
2023/10/22 18:14:21;;;;;;;4.73;1.70;;;;;;;;;;21005971;28;20235;-67
2023/10/22 18:24:24;;;;;;;5.57;1.80;;;;;;;;;;20985679;28;20231;-67
2023/10/22 18:34:27;;;;;;;10.23;2.33;;;;;;;;;;21004033;28;20231;-67
2023/10/22 18:44:29;;;;;;;6.50;2.00;;;;;;;;;;20990030;28;20574;-68
2023/10/22 18:54:31;;;;;;;7.77;1.90;;;;;;;;;;21000552;28;20265;-69
2023/10/22 19:04:33;;;;;;;10.83;1.87;;;;;;;;;;20999649;28;20242;-69
2023/10/22 19:14:36;;;;;;;8.80;1.97;;;;;;;;;;20998781;28;20403;-70
2023/10/22 19:24:38;;;;;;;4.77;1.97;;;;;;;;;;20998314;28;20580;-70
2023/10/22 19:34:41;;;;;;;7.27;1.80;;;;;;;;;;20997435;28;20703;-70
2023/10/22 19:44:43;;;;;;;10.63;2.53;;;;;;;;;;20996673;28;20203;-70
2023/10/22 19:54:46;;;;;;;7.80;3.30;;;;;;;;;;20977974;28;20598;-67
2023/10/22 20:04:48;;;;;;;8.10;2.77;;;;;;;;;;20995350;28;20238;-67
2023/10/22 20:14:50;;;;;;;14.93;5.13;;;;;;;;;;20921067;28;20244;-69
2023/10/22 20:24:52;;;;;;;14.17;4.90;;;;;;;;;;20920029;28;20204;-67
2023/10/22 20:34:56;;;;;;;9.03;4.20;;;;;;;;;;20945773;28;20238;-69
2023/10/22 20:45:01;;;;;;;8.53;4.93;;;;;;;;;;20951661;28;20212;-68
2023/10/22 20:55:03;;;;;;;16.47;4.77;;;;;;;;;;20909130;28;20236;-67
2023/10/22 21:05:06;;;;;;;12.00;4.87;;;;;;;;;;20900370;28;20285;-68
2023/10/22 21:15:08;;;;;;;8.97;4.13;;;;;;;;;;20908590;28;20242;-68
2023/10/22 21:25:10;;;;;;;11.47;4.30;;;;;;;;;;20908332;28;20729;-67
2023/10/22 21:35:12;;;;;;;10.13;4.30;;;;;;;;;;20940984;28;20238;-68
2023/10/22 21:45:15;;;;;;;10.43;3.93;;;;;;;;;;20977836;28;20294;-69
2023/10/22 21:55:21;;;;;;;12.20;4.30;;;;;;;;;;20997468;28;20701;-69
2023/10/22 22:05:23;;;;;;;12.93;4.73;;;;;;;;;;21003742;28;20231;-69
2023/10/22 22:15:25;;;;;;;11.97;4.20;;;;;;;;;;20974608;28;20293;-69
2023/10/22 22:25:27;;;;;;;11.87;3.87;;;;;;;;;;20922302;28;20284;-69
2023/10/22 22:35:45;;;;;;;10.30;3.70;;;;;;;;;;20918580;28;20250;-68
2023/10/22 22:45:47;;;;;;;8.97;4.10;;;;;;;;;;20989334;28;20272;-69
2023/10/22 22:55:50;;;;;;;10.77;3.93;;;;;;;;;;20999797;28;20727;-69
2023/10/22 23:05:52;;;;;;;13.17;4.10;;;;;;;;;;20991437;28;20238;-69
2023/10/22 23:15:54;;;;;;;12.63;3.13;;;;;;;;;;20936763;28;20782;-69
2023/10/22 23:25:56;;;;;;;10.67;3.63;;;;;;;;;;20914817;28;20662;-69
2023/10/22 23:36:07;;;;;;;8.00;3.33;;;;;;;;;;20913948;28;20228;-69
2023/10/22 23:46:09;;;;;;;8.73;2.97;;;;;;;;;;21054274;28;20306;-69
2023/10/22 23:56:11;;;;;;;9.47;3.23;;;;;;;;;;21080918;28;20242;-69
